createdAt,value
2022-10-14T00:01:39.860Z,5.03
2022-10-14T00:04:11.719Z,6.27
2022-10-14T00:06:43.550Z,5.00
2022-10-14T00:09:15.362Z,5.97
2022-10-14T00:11:47.170Z,4.73
2022-10-14T00:14:19.147Z,5.23
2022-10-14T00:16:52.732Z,5.30
2022-10-14T00:19:24.543Z,5.50
2022-10-14T00:21:56.854Z,5.53
2022-10-14T00:24:28.779Z,4.63
2022-10-14T00:27:00.607Z,5.90
2022-10-14T00:29:32.417Z,5.17
2022-10-14T00:32:04.916Z,4.77
2022-10-14T00:34:36.745Z,4.73
2022-10-14T00:37:08.917Z,5.73
2022-10-14T00:39:40.867Z,5.33
2022-10-14T00:42:12.640Z,4.40
2022-10-14T00:44:45.001Z,4.73
2022-10-14T00:47:17.369Z,4.33
2022-10-14T00:49:49.280Z,4.83
2022-10-14T00:52:21.198Z,4.50
2022-10-14T00:54:53.157Z,4.77
2022-10-14T00:57:25.309Z,5.37
2022-10-14T00:59:57.203Z,5.43
2022-10-14T01:02:29.285Z,4.90
2022-10-14T01:05:01.124Z,5.20
2022-10-14T01:07:32.946Z,5.43
2022-10-14T01:10:04.741Z,4.53
2022-10-14T01:12:37.537Z,4.57
2022-10-14T01:15:09.418Z,5.27
2022-10-14T01:17:41.211Z,5.60
2022-10-14T01:20:13.046Z,5.23
2022-10-14T01:22:45.098Z,5.10
2022-10-14T01:25:16.916Z,5.87
2022-10-14T01:27:50.605Z,5.90
2022-10-14T01:30:23.641Z,5.87
2022-10-14T01:32:56.826Z,5.93
2022-10-14T01:35:30.450Z,5.40
2022-10-14T01:38:02.235Z,6.37
2022-10-14T01:40:34.648Z,6.63
2022-10-14T01:43:06.422Z,6.20
2022-10-14T01:45:38.813Z,5.97
2022-10-14T01:48:10.765Z,6.07
2022-10-14T01:50:42.623Z,6.03
2022-10-14T01:53:14.397Z,6.43
2022-10-14T01:55:46.306Z,5.63
2022-10-14T01:58:19.829Z,6.47
2022-10-14T02:00:51.694Z,6.17
2022-10-14T02:03:23.567Z,5.80
2022-10-14T02:05:55.367Z,6.27
2022-10-14T02:08:27.247Z,6.10
2022-10-14T02:11:02.181Z,5.13
2022-10-14T02:13:32.552Z,5.37
2022-10-14T02:16:04.607Z,6.53
2022-10-14T02:18:36.469Z,7.20
2022-10-14T02:21:10.268Z,6.07
2022-10-14T02:23:42.071Z,6.30
2022-10-14T02:26:13.964Z,6.50
2022-10-14T02:28:45.993Z,6.50
2022-10-14T02:31:18.045Z,6.67
2022-10-14T02:33:50.288Z,6.63
2022-10-14T02:36:22.351Z,6.23
2022-10-14T02:38:54.323Z,6.70
2022-10-14T02:41:26.118Z,8.87
2022-10-14T02:43:57.924Z,6.07
2022-10-14T02:46:29.720Z,7.43
2022-10-14T02:49:01.582Z,7.23
2022-10-14T02:51:33.418Z,7.23
2022-10-14T02:54:06.124Z,6.90
2022-10-14T02:56:38.392Z,6.40
2022-10-14T02:59:10.293Z,7.83
2022-10-14T03:01:43.733Z,6.80
2022-10-14T03:04:15.690Z,6.67
2022-10-14T03:06:47.608Z,6.27
2022-10-14T03:09:19.495Z,7.07
2022-10-14T03:11:51.987Z,6.60
2022-10-14T03:14:24.671Z,6.77
2022-10-14T03:16:56.973Z,6.47
2022-10-14T03:19:29.374Z,6.73
2022-10-14T03:22:01.205Z,6.57
2022-10-14T03:24:33.891Z,6.90
2022-10-14T03:27:07.428Z,6.77
2022-10-14T03:29:40.390Z,6.67
2022-10-14T03:32:19.959Z,7.13
2022-10-14T03:34:59.471Z,6.67
2022-10-14T03:37:31.387Z,6.97
2022-10-14T03:40:03.735Z,7.70
2022-10-14T03:42:36.927Z,7.27
2022-10-14T03:45:08.915Z,8.27
2022-10-14T03:47:42.425Z,7.27
2022-10-14T03:50:14.481Z,7.73
2022-10-14T03:52:50.028Z,8.70
2022-10-14T03:55:25.932Z,8.47
2022-10-14T03:57:58.060Z,8.00
2022-10-14T04:00:30.772Z,7.97
2022-10-14T04:03:07.096Z,6.93
2022-10-14T04:05:40.574Z,7.97
2022-10-14T04:08:14.097Z,8.97
2022-10-14T04:10:47.607Z,7.47
2022-10-14T04:13:19.593Z,7.87
2022-10-14T04:15:51.806Z,9.83
2022-10-14T04:18:40.415Z,8.20
2022-10-14T04:21:13.181Z,8.50
2022-10-14T04:23:46.430Z,9.80
2022-10-14T04:26:19.934Z,7.40
2022-10-14T04:28:51.894Z,8.37
2022-10-14T04:31:25.544Z,9.03
2022-10-14T04:33:59.126Z,8.00
2022-10-14T04:36:32.728Z,9.33
2022-10-14T04:39:05.291Z,8.70
2022-10-14T04:41:37.144Z,8.60
2022-10-14T04:44:09.006Z,9.23
2022-10-14T04:46:42.541Z,7.73
2022-10-14T04:49:14.619Z,8.77
2022-10-14T04:51:48.177Z,8.63
2022-10-14T04:54:21.699Z,8.63
2022-10-14T04:56:57.706Z,8.13
2022-10-14T04:59:29.799Z,7.50
2022-10-14T05:02:06.113Z,8.53
2022-10-14T05:04:39.668Z,8.47
2022-10-14T05:07:11.886Z,8.70
2022-10-14T05:09:49.052Z,8.37
2022-10-14T05:12:20.262Z,8.83
2022-10-14T05:14:53.969Z,8.67
2022-10-14T05:17:27.607Z,8.87
2022-10-14T05:19:59.565Z,9.77
2022-10-14T05:22:32.149Z,9.27
2022-10-14T05:25:04.102Z,8.53
2022-10-14T05:27:36.738Z,7.17
2022-10-14T05:30:08.702Z,8.77
2022-10-14T05:32:42.246Z,8.33
2022-10-14T05:35:14.302Z,8.73
2022-10-14T05:37:46.187Z,8.50
2022-10-14T05:40:19.074Z,8.67
2022-10-14T05:42:51.303Z,7.83
2022-10-14T05:45:23.986Z,8.30
2022-10-14T05:47:56.479Z,7.83
2022-10-14T05:50:28.667Z,7.13
2022-10-14T05:53:02.157Z,7.03
2022-10-14T05:55:35.665Z,5.73
2022-10-14T05:58:07.585Z,6.53
2022-10-14T06:00:41.156Z,6.97
2022-10-14T06:03:14.768Z,7.20
2022-10-14T06:05:46.901Z,5.83
2022-10-14T06:08:19.064Z,5.80
2022-10-14T06:10:51.028Z,5.17
2022-10-14T06:13:22.859Z,4.90
2022-10-14T06:15:55.235Z,4.77
2022-10-14T06:18:27.042Z,5.43
2022-10-14T06:20:58.893Z,4.80
2022-10-14T06:23:30.716Z,3.73
2022-10-14T06:26:02.521Z,4.57
2022-10-14T06:28:34.371Z,4.20
2022-10-14T06:31:06.162Z,4.40
2022-10-14T06:33:37.980Z,3.80
2022-10-14T06:36:09.775Z,3.63
2022-10-14T06:38:41.578Z,3.40
2022-10-14T06:41:13.495Z,3.13
2022-10-14T06:43:45.711Z,3.07
2022-10-14T06:46:20.523Z,3.03
2022-10-14T06:48:52.307Z,3.00
2022-10-14T06:51:24.873Z,3.40
2022-10-14T06:53:56.724Z,3.63
2022-10-14T06:56:28.608Z,3.60
2022-10-14T06:59:01.013Z,3.00
2022-10-14T07:01:32.864Z,3.30
2022-10-14T07:04:04.630Z,2.70
2022-10-14T07:06:36.636Z,3.00
2022-10-14T07:09:08.435Z,3.77
2022-10-14T07:11:40.302Z,3.17
2022-10-14T07:14:12.102Z,3.03
2022-10-14T07:16:44.114Z,2.40
2022-10-14T07:19:15.917Z,2.80
2022-10-14T07:21:47.737Z,2.83
2022-10-14T07:24:19.629Z,3.77
2022-10-14T07:26:51.460Z,3.63
2022-10-14T07:29:23.425Z,3.03
2022-10-14T07:31:55.243Z,3.37
2022-10-14T07:34:27.161Z,3.70
2022-10-14T07:36:59.010Z,3.67
2022-10-14T07:39:30.966Z,4.43
2022-10-14T07:42:02.848Z,5.53
2022-10-14T07:44:34.557Z,4.23
2022-10-14T07:47:06.349Z,3.77
2022-10-14T07:49:38.192Z,4.27
2022-10-14T07:52:10.017Z,4.20
2022-10-14T07:54:41.812Z,5.07
2022-10-14T07:57:13.613Z,5.47
2022-10-14T07:59:45.418Z,5.43
2022-10-14T08:02:17.248Z,4.83
2022-10-14T08:04:49.094Z,5.23
2022-10-14T08:07:21.124Z,4.80
2022-10-14T08:09:53.299Z,6.10
2022-10-14T08:12:25.179Z,5.87
2022-10-14T08:14:57.006Z,5.87
2022-10-14T08:17:28.814Z,5.60
2022-10-14T08:20:00.608Z,5.27
2022-10-14T08:22:32.612Z,5.47
2022-10-14T08:25:04.491Z,5.97
2022-10-14T08:27:36.328Z,5.70
2022-10-14T08:30:11.098Z,6.50
2022-10-14T08:32:41.504Z,6.10
2022-10-14T08:35:13.776Z,5.07
2022-10-14T08:37:45.716Z,5.40
2022-10-14T08:40:17.568Z,6.10
2022-10-14T08:42:49.364Z,5.17
2022-10-14T08:45:21.254Z,5.03
2022-10-14T08:47:53.096Z,4.63
2022-10-14T08:50:24.929Z,4.23
2022-10-14T08:52:57.448Z,4.97
2022-10-14T08:55:30.824Z,4.20
2022-10-14T08:58:04.049Z,4.73
2022-10-14T09:00:36.136Z,3.77
2022-10-14T09:03:08.001Z,3.90
2022-10-14T09:05:39.915Z,3.73
2022-10-14T09:08:11.725Z,3.40
2022-10-14T09:10:43.510Z,3.07
2022-10-14T09:13:15.382Z,3.80
2022-10-14T09:15:47.325Z,3.70
2022-10-14T09:18:19.148Z,3.30
2022-10-14T09:20:51.047Z,3.97
2022-10-14T09:23:23.008Z,3.33
2022-10-14T09:25:54.791Z,3.73
2022-10-14T09:28:26.611Z,3.80
2022-10-14T09:30:58.638Z,3.43
2022-10-14T09:33:30.435Z,3.37
2022-10-14T09:36:02.238Z,3.43
2022-10-14T09:38:34.909Z,3.10
2022-10-14T09:41:06.749Z,3.80
2022-10-14T09:46:10.397Z,2.87
2022-10-14T09:48:43.154Z,2.77
2022-10-14T09:51:15.653Z,2.73
2022-10-14T09:53:47.477Z,2.80
2022-10-14T09:56:20.841Z,3.90
2022-10-14T09:58:54.361Z,2.80
2022-10-14T10:01:26.296Z,2.77
2022-10-14T10:03:59.244Z,3.47
2022-10-14T10:06:31.980Z,3.00
2022-10-14T10:09:03.839Z,2.90
2022-10-14T10:11:35.645Z,2.73
2022-10-14T10:14:08.694Z,2.33
2022-10-14T10:16:40.484Z,2.80
2022-10-14T10:19:12.424Z,2.37
2022-10-14T10:21:44.370Z,2.83
2022-10-14T10:24:16.273Z,3.00
2022-10-14T10:26:48.059Z,2.43
2022-10-14T10:29:19.825Z,2.07
2022-10-14T10:31:51.857Z,2.13
2022-10-14T10:34:23.685Z,2.33
2022-10-14T10:36:55.594Z,2.00
2022-10-14T10:39:27.392Z,2.90
2022-10-14T10:41:59.198Z,2.03
2022-10-14T10:44:31.019Z,1.70
2022-10-14T10:47:02.878Z,1.87
2022-10-14T10:49:34.730Z,1.80
2022-10-14T10:52:07.161Z,2.17
2022-10-14T10:54:39.038Z,1.70
2022-10-14T10:57:10.895Z,1.83
2022-10-14T10:59:42.701Z,1.97
2022-10-14T11:02:14.579Z,2.10
2022-10-14T11:04:46.476Z,2.00
2022-10-14T11:07:18.353Z,1.57
2022-10-14T11:09:50.206Z,2.37
2022-10-14T11:12:22.227Z,2.27
2022-10-14T11:14:54.463Z,2.43
2022-10-14T11:17:26.395Z,2.13
2022-10-14T11:19:58.482Z,2.20
2022-10-14T11:22:30.390Z,2.63
2022-10-14T11:25:02.206Z,2.20
2022-10-14T11:27:34.024Z,2.17
2022-10-14T11:30:05.854Z,1.60
2022-10-14T11:32:37.630Z,1.90
2022-10-14T11:35:11.308Z,1.50
2022-10-14T11:37:43.176Z,1.53
2022-10-14T11:40:15.072Z,1.60
2022-10-14T11:42:47.006Z,1.70
2022-10-14T11:45:21.252Z,1.23
2022-10-14T11:47:53.936Z,1.63
2022-10-14T11:50:25.761Z,1.43
2022-10-14T11:52:57.580Z,1.80
2022-10-14T11:55:29.348Z,1.40
2022-10-14T11:58:01.276Z,1.30
2022-10-14T12:00:33.281Z,1.20
2022-10-14T12:03:05.189Z,1.20
2022-10-14T12:05:37.037Z,1.20
2022-10-14T12:08:08.929Z,1.73
2022-10-14T12:10:40.707Z,1.53
2022-10-14T12:13:13.772Z,1.20
2022-10-14T12:15:45.536Z,1.27
2022-10-14T12:18:18.417Z,1.10
2022-10-14T12:20:50.705Z,1.00
2022-10-14T12:23:23.654Z,1.20
2022-10-14T12:25:55.443Z,1.70
2022-10-14T12:28:27.315Z,1.47
2022-10-14T12:30:59.083Z,1.47
2022-10-14T12:33:32.626Z,1.43
2022-10-14T12:36:04.623Z,1.70
2022-10-14T12:38:36.433Z,1.20
2022-10-14T12:41:08.191Z,1.70
2022-10-14T12:43:41.360Z,1.60
2022-10-14T12:46:13.139Z,1.73
2022-10-14T12:48:44.935Z,1.63
2022-10-14T12:51:16.742Z,1.67
2022-10-14T12:53:48.544Z,1.37
2022-10-14T12:56:20.644Z,1.37
2022-10-14T12:58:52.449Z,1.57
2022-10-14T13:01:24.271Z,1.33
2022-10-14T13:03:56.338Z,1.40
2022-10-14T13:06:28.135Z,1.53
2022-10-14T13:08:59.888Z,1.80
2022-10-14T13:11:31.806Z,1.63
2022-10-14T13:14:04.560Z,1.40
2022-10-14T13:16:36.383Z,2.07
2022-10-14T13:19:08.951Z,2.00
2022-10-14T13:21:40.790Z,1.20
2022-10-14T13:24:12.596Z,1.80
2022-10-14T13:26:44.386Z,1.20
2022-10-14T13:29:16.595Z,1.33
2022-10-14T13:31:48.355Z,1.97
2022-10-14T13:34:20.153Z,1.20
2022-10-14T13:36:52.051Z,1.53
2022-10-14T13:39:23.800Z,1.70
2022-10-14T13:41:56.055Z,1.93
2022-10-14T13:44:27.906Z,2.10
2022-10-14T13:47:00.655Z,1.87
2022-10-14T13:49:32.452Z,2.27
2022-10-14T13:52:04.302Z,1.87
2022-10-14T13:54:36.110Z,2.90
2022-10-14T13:59:43.934Z,2.37
2022-10-14T14:02:14.865Z,2.70
2022-10-14T14:04:46.612Z,3.07
2022-10-14T14:07:47.831Z,2.30
2022-10-14T14:09:53.622Z,2.67
2022-10-14T14:12:25.414Z,2.87
2022-10-14T14:14:57.220Z,2.80
2022-10-14T14:17:29.372Z,2.87
2022-10-14T14:20:01.382Z,2.33
2022-10-14T14:22:33.198Z,3.00
2022-10-14T14:25:24.268Z,2.63
2022-10-14T14:27:38.396Z,3.37
2022-10-14T14:30:10.195Z,2.77
2022-10-14T14:32:42.055Z,2.30
2022-10-14T14:35:14.625Z,2.93
2022-10-14T14:37:55.782Z,2.37
2022-10-14T14:40:20.612Z,3.03
2022-10-14T14:42:52.429Z,3.10
2022-10-14T14:45:24.572Z,3.20
2022-10-14T14:47:56.356Z,2.53
2022-10-14T14:50:31.135Z,2.63
2022-10-14T14:53:03.368Z,3.20
2022-10-14T14:55:35.187Z,2.30
2022-10-14T14:58:07.036Z,1.97
2022-10-14T15:00:38.865Z,2.07
2022-10-14T15:03:10.661Z,2.27
2022-10-14T15:05:42.623Z,1.90
2022-10-14T15:08:14.774Z,2.10
2022-10-14T15:10:46.683Z,1.83
2022-10-14T15:13:18.458Z,1.90
2022-10-14T15:15:50.284Z,1.70
2022-10-14T15:18:22.060Z,2.20
2022-10-14T15:20:53.861Z,1.70
2022-10-14T15:23:25.638Z,1.83
2022-10-14T15:25:57.463Z,2.00
2022-10-14T15:28:29.297Z,2.50
2022-10-14T15:31:05.558Z,2.17
2022-10-14T15:33:36.406Z,1.80
2022-10-14T15:36:08.212Z,2.87
2022-10-14T15:38:40.156Z,1.80
2022-10-14T15:41:12.047Z,2.73
2022-10-14T15:43:43.836Z,2.00
2022-10-14T15:46:15.654Z,2.07
2022-10-14T15:48:47.427Z,1.37
2022-10-14T15:51:20.956Z,1.90
2022-10-14T15:53:52.747Z,2.10
2022-10-14T15:56:24.606Z,1.90
2022-10-14T15:58:57.616Z,2.20
2022-10-14T16:01:29.599Z,1.90
2022-10-14T16:04:01.350Z,2.30
2022-10-14T16:06:33.147Z,2.40
2022-10-14T16:09:05.149Z,1.90
2022-10-14T16:11:36.938Z,1.73
2022-10-14T16:14:09.718Z,1.70
2022-10-14T16:16:41.580Z,1.63
2022-10-14T16:19:13.372Z,1.77
2022-10-14T16:21:45.219Z,1.80
2022-10-14T16:24:17.114Z,1.90
2022-10-14T16:26:48.848Z,2.50
2022-10-14T16:29:20.674Z,1.90
2022-10-14T16:31:52.592Z,1.87
2022-10-14T16:34:24.352Z,2.00
2022-10-14T16:36:56.140Z,2.00
2022-10-14T16:39:27.941Z,1.33
2022-10-14T16:41:59.728Z,2.10
2022-10-14T16:44:31.564Z,2.83
2022-10-14T16:47:03.555Z,3.00
2022-10-14T16:49:35.413Z,3.53
2022-10-14T16:52:08.082Z,5.20
2022-10-14T16:54:39.954Z,4.23
2022-10-14T16:57:11.741Z,2.93
2022-10-14T16:59:43.636Z,2.37
2022-10-14T17:02:15.427Z,2.07
2022-10-14T17:04:47.227Z,2.73
2022-10-14T17:07:19.033Z,1.73
2022-10-14T17:09:50.926Z,2.00
2022-10-14T17:12:22.970Z,2.03
2022-10-14T17:14:55.005Z,2.37
2022-10-14T17:17:26.806Z,2.20
2022-10-14T17:19:58.738Z,1.70
2022-10-14T17:22:31.451Z,2.00
2022-10-14T17:25:03.228Z,2.60
2022-10-14T17:27:35.610Z,2.13
2022-10-14T17:30:07.758Z,2.30
2022-10-14T17:32:39.549Z,3.13
2022-10-14T17:35:14.431Z,2.70
2022-10-14T17:37:44.783Z,2.23
2022-10-14T17:40:16.588Z,2.33
2022-10-14T17:42:48.411Z,2.73
2022-10-14T17:45:20.184Z,2.17
2022-10-14T17:47:51.985Z,2.20
2022-10-14T17:50:23.772Z,2.63
2022-10-14T17:52:55.606Z,1.90
2022-10-14T17:55:27.394Z,2.00
2022-10-14T17:57:59.211Z,1.60
2022-10-14T18:00:31.114Z,2.07
2022-10-14T18:03:03.138Z,2.27
2022-10-14T18:05:34.933Z,2.73
2022-10-14T18:08:06.707Z,1.93
2022-10-14T18:10:38.526Z,2.23
2022-10-14T18:13:10.421Z,2.10
2022-10-14T18:15:42.227Z,2.30
2022-10-14T18:18:14.140Z,3.00
2022-10-14T18:20:45.944Z,2.17
2022-10-14T18:23:17.884Z,3.23
2022-10-14T18:25:49.719Z,2.60
2022-10-14T18:28:21.572Z,3.00
2022-10-14T18:30:53.349Z,3.10
2022-10-14T18:33:25.303Z,2.63
2022-10-14T18:35:57.270Z,2.77
2022-10-14T18:38:29.024Z,3.23
2022-10-14T18:41:00.992Z,3.50
2022-10-14T18:43:32.797Z,3.40
2022-10-14T18:46:04.587Z,3.20
2022-10-14T18:48:36.515Z,2.90
2022-10-14T18:51:08.295Z,3.53
2022-10-14T18:53:40.181Z,3.20
2022-10-14T18:56:12.002Z,2.90
2022-10-14T18:58:44.426Z,3.63
2022-10-14T19:01:16.534Z,3.73
2022-10-14T19:03:48.378Z,2.90
2022-10-14T19:06:20.162Z,4.00
2022-10-14T19:08:52.023Z,3.00
2022-10-14T19:11:23.902Z,4.23
2022-10-14T19:13:55.676Z,3.43
2022-10-14T19:16:27.472Z,3.07
2022-10-14T19:18:59.310Z,3.53
2022-10-14T19:21:31.176Z,3.47
2022-10-14T19:24:03.011Z,4.27
2022-10-14T19:26:34.891Z,3.33
2022-10-14T19:29:10.454Z,3.80
2022-10-14T19:31:40.195Z,3.67
2022-10-14T19:34:12.041Z,4.30
2022-10-14T19:36:43.849Z,3.67
2022-10-14T19:39:15.696Z,4.47
2022-10-14T19:41:47.572Z,3.60
2022-10-14T19:44:19.697Z,4.47
2022-10-14T19:46:51.454Z,3.50
2022-10-14T19:49:23.289Z,4.30
2022-10-14T19:51:55.128Z,3.63
2022-10-14T19:54:26.967Z,4.00
2022-10-14T19:56:58.871Z,4.13
2022-10-14T19:59:30.660Z,3.80
2022-10-14T20:02:02.462Z,3.57
2022-10-14T20:04:34.257Z,4.60
2022-10-14T20:07:06.212Z,3.50
2022-10-14T20:09:37.978Z,4.03
2022-10-14T20:12:09.771Z,3.37
2022-10-14T20:14:41.574Z,4.03
2022-10-14T20:17:13.444Z,3.13
2022-10-14T20:19:45.297Z,3.27
2022-10-14T20:22:17.177Z,2.70
2022-10-14T20:24:48.986Z,3.47
2022-10-14T20:27:20.959Z,3.70
2022-10-14T20:29:52.965Z,3.60
2022-10-14T20:32:24.752Z,3.87
2022-10-14T20:34:56.559Z,3.60
2022-10-14T20:37:28.418Z,4.30
2022-10-14T20:40:00.348Z,4.17
2022-10-14T20:42:32.251Z,4.27
2022-10-14T20:45:04.040Z,4.27
2022-10-14T20:47:35.883Z,4.33
2022-10-14T20:50:07.710Z,3.83
2022-10-14T20:52:39.501Z,3.93
2022-10-14T20:55:11.372Z,4.47
2022-10-14T20:57:43.243Z,5.10
2022-10-14T21:00:14.981Z,5.17
2022-10-14T21:02:46.823Z,4.70
2022-10-14T21:05:18.623Z,4.77
2022-10-14T21:07:50.435Z,4.70
2022-10-14T21:10:22.233Z,5.00
2022-10-14T21:12:54.037Z,4.53
2022-10-14T21:15:25.830Z,4.80
2022-10-14T21:17:57.685Z,4.67
2022-10-14T21:20:29.445Z,4.43
2022-10-14T21:23:01.356Z,4.17
2022-10-14T21:25:33.252Z,4.07
2022-10-14T21:28:05.051Z,5.33
2022-10-14T21:30:36.832Z,4.87
2022-10-14T21:33:08.720Z,5.00
2022-10-14T21:35:40.534Z,4.40
2022-10-14T21:38:12.598Z,4.60
2022-10-14T21:40:44.366Z,4.40
2022-10-14T21:43:16.171Z,4.30
2022-10-14T21:45:47.965Z,5.13
2022-10-14T21:48:19.839Z,4.63
2022-10-14T21:50:51.594Z,5.00
2022-10-14T21:53:23.371Z,3.87
2022-10-14T21:55:55.168Z,4.93
2022-10-14T21:58:27.641Z,5.17
2022-10-14T22:00:59.558Z,5.30
2022-10-14T22:03:31.394Z,3.80
2022-10-14T22:06:03.280Z,4.93
2022-10-14T22:08:35.099Z,4.93
2022-10-14T22:11:06.892Z,4.60
2022-10-14T22:13:38.776Z,4.00
2022-10-14T22:16:10.576Z,4.03
2022-10-14T22:18:42.481Z,4.17
2022-10-14T22:21:14.268Z,4.97
2022-10-14T22:23:46.072Z,3.77
2022-10-14T22:26:17.897Z,4.03
2022-10-14T22:28:49.825Z,4.80
2022-10-14T22:31:21.781Z,4.43
2022-10-14T22:33:53.591Z,4.00
2022-10-14T22:36:25.382Z,3.83
2022-10-14T22:38:57.195Z,3.37
2022-10-14T22:41:34.895Z,4.10
2022-10-14T22:44:02.404Z,4.37
2022-10-14T22:46:34.210Z,5.03
2022-10-14T22:49:06.042Z,4.17
2022-10-14T22:51:38.006Z,4.07
2022-10-14T22:54:10.105Z,4.23
2022-10-14T22:56:41.986Z,4.23
2022-10-14T22:59:13.792Z,4.37
2022-10-14T23:01:45.596Z,4.60
2022-10-14T23:04:17.398Z,5.13
2022-10-14T23:06:49.345Z,4.87
2022-10-14T23:09:21.340Z,4.73
2022-10-14T23:11:53.376Z,5.20
2022-10-14T23:14:25.187Z,5.73
2022-10-14T23:16:56.977Z,4.80
2022-10-14T23:19:28.800Z,5.23
2022-10-14T23:22:00.578Z,6.47
2022-10-14T23:24:32.338Z,5.50
2022-10-14T23:27:04.185Z,6.40
2022-10-14T23:29:36.087Z,5.67
2022-10-14T23:32:07.898Z,4.57
2022-10-14T23:34:39.816Z,5.57
2022-10-14T23:37:11.610Z,5.93
2022-10-14T23:39:43.409Z,6.17
2022-10-14T23:42:15.214Z,7.10
2022-10-14T23:44:47.072Z,5.90
2022-10-14T23:47:18.869Z,8.03
2022-10-14T23:49:50.723Z,8.43
2022-10-14T23:52:22.469Z,7.37
2022-10-14T23:54:54.458Z,6.27
2022-10-14T23:57:26.384Z,6.27
2022-10-14T23:59:58.228Z,7.03
